createdAt,value
2019-03-15T00:01:40.575Z,1.85
2019-03-15T00:04:09.565Z,1.90
2019-03-15T00:06:38.615Z,1.50
2019-03-15T00:09:09.191Z,1.85
2019-03-15T00:11:38.065Z,1.75
2019-03-15T00:14:07.453Z,1.85
2019-03-15T00:16:36.487Z,2.02
2019-03-15T00:19:05.554Z,1.80
2019-03-15T00:21:34.761Z,2.27
2019-03-15T00:24:03.960Z,1.90
2019-03-15T00:26:32.838Z,1.85
2019-03-15T00:29:01.945Z,2.40
2019-03-15T00:31:31.001Z,1.70
2019-03-15T00:34:00.031Z,2.02
2019-03-15T00:36:29.130Z,1.90
2019-03-15T00:38:58.188Z,2.05
2019-03-15T00:41:27.178Z,1.60
2019-03-15T00:43:56.410Z,2.20
2019-03-15T00:46:25.418Z,1.77
2019-03-15T00:48:54.404Z,2.70
2019-03-15T00:51:23.493Z,2.17
2019-03-15T00:53:54.329Z,1.80
2019-03-15T00:56:24.602Z,1.98
2019-03-15T00:58:53.544Z,1.70
2019-03-15T01:01:22.424Z,1.72
2019-03-15T01:03:51.324Z,2.35
2019-03-15T01:06:20.313Z,1.90
2019-03-15T01:08:49.315Z,1.65
2019-03-15T01:11:18.311Z,1.95
2019-03-15T01:13:47.408Z,1.90
2019-03-15T01:16:16.505Z,1.95
2019-03-15T01:18:45.474Z,1.77
2019-03-15T01:21:14.687Z,1.60
2019-03-15T01:23:43.681Z,2.10
2019-03-15T01:26:12.558Z,1.87
2019-03-15T01:28:41.568Z,1.90
2019-03-15T01:31:10.656Z,2.40
2019-03-15T01:33:39.750Z,2.08
2019-03-15T01:36:08.743Z,1.77
2019-03-15T01:38:37.843Z,1.82
2019-03-15T01:41:06.833Z,1.70
2019-03-15T01:43:36.131Z,2.10
2019-03-15T01:46:05.010Z,2.05
2019-03-15T01:48:33.880Z,2.25
2019-03-15T01:51:02.900Z,1.80
2019-03-15T01:53:31.901Z,2.02
2019-03-15T01:56:00.897Z,2.20
2019-03-15T01:58:30.305Z,2.15
2019-03-15T02:00:59.387Z,2.12
2019-03-15T02:03:28.375Z,2.08
2019-03-15T02:05:57.603Z,2.17
2019-03-15T02:08:26.749Z,1.98
2019-03-15T02:10:56.075Z,1.90
2019-03-15T02:13:25.165Z,2.35
2019-03-15T02:15:54.057Z,2.40
2019-03-15T02:18:23.364Z,1.80
2019-03-15T02:20:53.304Z,2.00
2019-03-15T02:23:23.219Z,2.12
2019-03-15T02:25:53.382Z,2.20
2019-03-15T02:28:23.317Z,2.60
2019-03-15T02:30:52.223Z,2.00
2019-03-15T02:33:21.227Z,2.55
2019-03-15T02:35:50.199Z,2.80
2019-03-15T02:38:19.210Z,2.67
2019-03-15T02:40:48.300Z,1.70
2019-03-15T02:43:17.501Z,2.05
2019-03-15T02:45:47.201Z,2.10
2019-03-15T02:48:17.013Z,1.92
2019-03-15T02:50:46.016Z,2.45
2019-03-15T02:53:15.106Z,2.60
2019-03-15T02:55:43.927Z,2.00
2019-03-15T02:58:13.203Z,2.00
2019-03-15T03:00:42.196Z,2.25
2019-03-15T03:03:11.287Z,2.45
2019-03-15T03:05:40.479Z,2.35
2019-03-15T03:08:09.479Z,2.33
2019-03-15T03:10:38.567Z,2.50
2019-03-15T03:13:08.033Z,2.47
2019-03-15T03:15:37.176Z,2.47
2019-03-15T03:18:07.240Z,1.95
2019-03-15T03:20:36.587Z,2.58
2019-03-15T03:23:05.687Z,2.25
2019-03-15T03:25:34.681Z,2.02
2019-03-15T03:28:03.981Z,2.37
2019-03-15T03:33:22.443Z,2.50
2019-03-15T03:35:51.440Z,2.45
2019-03-15T03:38:20.432Z,2.10
2019-03-15T03:40:49.512Z,2.40
2019-03-15T03:43:18.512Z,2.50
2019-03-15T03:45:47.403Z,2.42
2019-03-15T03:48:16.600Z,3.30
2019-03-15T03:50:45.590Z,2.52
2019-03-15T03:53:14.684Z,2.58
2019-03-15T03:55:43.848Z,2.40
2019-03-15T03:58:12.776Z,2.22
2019-03-15T04:00:41.787Z,2.45
2019-03-15T04:03:10.966Z,3.42
2019-03-15T04:05:39.958Z,2.58
2019-03-15T04:08:09.049Z,2.00
2019-03-15T04:10:38.148Z,2.50
2019-03-15T04:13:07.167Z,2.33
2019-03-15T04:15:36.458Z,2.55
2019-03-15T04:18:06.657Z,2.02
2019-03-15T04:20:35.966Z,2.30
2019-03-15T04:23:04.973Z,3.65
2019-03-15T04:25:34.130Z,2.65
2019-03-15T04:28:03.248Z,2.05
2019-03-15T04:30:32.417Z,2.70
2019-03-15T04:33:01.548Z,2.58
2019-03-15T04:35:30.636Z,3.00
2019-03-15T04:37:59.528Z,2.42
2019-03-15T04:40:28.720Z,2.87
2019-03-15T04:42:57.708Z,2.62
2019-03-15T04:45:26.916Z,2.67
2019-03-15T04:47:56.121Z,2.90
2019-03-15T04:50:24.964Z,3.40
2019-03-15T04:52:53.753Z,2.90
2019-03-15T04:55:22.755Z,2.65
2019-03-15T04:57:51.732Z,3.12
2019-03-15T05:00:20.636Z,2.80
2019-03-15T05:02:49.836Z,2.83
2019-03-15T05:05:18.826Z,2.80
2019-03-15T05:07:47.699Z,2.50
2019-03-15T05:10:16.816Z,2.70
2019-03-15T05:12:45.699Z,2.92
2019-03-15T05:15:14.590Z,2.47
2019-03-15T05:17:43.804Z,2.45
2019-03-15T05:20:12.905Z,4.40
2019-03-15T05:22:41.991Z,5.28
2019-03-15T05:25:12.147Z,4.50
2019-03-15T05:27:41.088Z,3.95
2019-03-15T05:30:11.587Z,4.55
2019-03-15T05:32:40.723Z,3.22
2019-03-15T05:35:09.699Z,3.87
2019-03-15T05:37:40.523Z,3.80
2019-03-15T05:40:09.437Z,7.65
2019-03-15T05:42:38.433Z,5.92
2019-03-15T05:45:10.181Z,7.87
2019-03-15T05:47:39.394Z,9.80
2019-03-15T05:50:11.043Z,11.10
2019-03-15T05:52:40.134Z,11.90
2019-03-15T05:55:12.316Z,14.70
2019-03-15T05:57:41.180Z,11.33
2019-03-15T06:00:15.093Z,7.58
2019-03-15T06:02:44.295Z,7.97
2019-03-15T06:05:13.306Z,7.55
2019-03-15T06:07:42.288Z,8.15
2019-03-15T06:10:13.328Z,7.25
2019-03-15T06:12:42.188Z,5.33
2019-03-15T06:15:12.238Z,3.65
2019-03-15T06:17:41.323Z,3.00
2019-03-15T06:20:13.997Z,2.85
2019-03-15T06:22:42.819Z,3.50
2019-03-15T06:25:12.484Z,3.20
2019-03-15T06:27:41.504Z,2.65
2019-03-15T06:30:15.225Z,3.33
2019-03-15T06:32:44.699Z,2.85
2019-03-15T06:35:13.914Z,3.52
2019-03-15T06:37:44.653Z,3.30
2019-03-15T06:40:14.179Z,2.98
2019-03-15T06:42:43.330Z,2.83
2019-03-15T06:45:13.572Z,2.77
2019-03-15T06:47:42.873Z,2.77
2019-03-15T06:50:11.745Z,2.80
2019-03-15T06:52:40.753Z,3.20
2019-03-15T06:55:10.066Z,4.17
2019-03-15T06:57:39.053Z,3.12
2019-03-15T07:00:10.893Z,3.33
2019-03-15T07:02:40.098Z,4.10
2019-03-15T07:05:12.084Z,3.62
2019-03-15T07:07:40.237Z,3.67
2019-03-15T07:10:10.923Z,4.92
2019-03-15T07:12:40.475Z,3.67
2019-03-15T07:15:13.933Z,3.33
2019-03-15T07:17:44.669Z,5.25
2019-03-15T07:20:17.076Z,6.47
2019-03-15T07:22:46.187Z,5.25
2019-03-15T07:25:15.368Z,5.05
2019-03-15T07:27:44.462Z,5.85
2019-03-15T07:30:16.422Z,6.85
2019-03-15T07:32:45.500Z,7.55
2019-03-15T07:35:14.411Z,8.75
2019-03-15T07:37:45.455Z,6.00
2019-03-15T07:40:14.342Z,8.00
2019-03-15T07:42:43.232Z,7.97
2019-03-15T07:45:13.970Z,6.45
2019-03-15T07:47:43.171Z,6.97
2019-03-15T07:50:15.844Z,8.65
2019-03-15T07:52:44.935Z,6.10
2019-03-15T07:55:14.144Z,7.67
2019-03-15T07:57:43.225Z,7.78
2019-03-15T08:00:19.051Z,6.95
2019-03-15T08:02:48.187Z,8.23
2019-03-15T08:05:17.169Z,6.90
2019-03-15T08:07:46.377Z,6.42
2019-03-15T08:10:15.368Z,5.78
2019-03-15T08:12:44.359Z,5.97
2019-03-15T08:15:13.955Z,6.05
2019-03-15T08:17:42.948Z,5.97
2019-03-15T08:20:13.109Z,6.35
2019-03-15T08:22:42.378Z,5.80
2019-03-15T08:25:11.956Z,5.55
2019-03-15T08:27:40.983Z,5.55
2019-03-15T08:30:15.265Z,3.62
2019-03-15T08:32:44.388Z,4.22
2019-03-15T08:35:13.844Z,3.92
2019-03-15T08:37:42.886Z,3.37
2019-03-15T08:40:15.042Z,4.12
2019-03-15T08:42:44.173Z,3.10
2019-03-15T08:45:14.924Z,3.40
2019-03-15T08:47:43.970Z,3.45
2019-03-15T08:50:17.554Z,4.65
2019-03-15T08:52:46.692Z,4.28
2019-03-15T08:55:15.879Z,3.80
2019-03-15T08:57:44.980Z,2.98
2019-03-15T09:00:17.147Z,3.25
2019-03-15T09:02:46.237Z,3.17
2019-03-15T09:05:15.969Z,3.62
2019-03-15T09:07:45.248Z,2.75
2019-03-15T09:10:22.388Z,3.20
2019-03-15T09:12:46.315Z,2.95
2019-03-15T09:15:15.695Z,2.65
2019-03-15T09:17:44.697Z,2.85
2019-03-15T09:20:14.741Z,2.67
2019-03-15T09:22:44.011Z,3.08
2019-03-15T09:25:19.929Z,3.50
2019-03-15T09:27:45.581Z,3.40
2019-03-15T09:30:23.050Z,3.67
2019-03-15T09:32:46.742Z,2.87
2019-03-15T09:35:15.629Z,2.25
2019-03-15T09:37:47.374Z,2.90
2019-03-15T09:40:16.261Z,2.55
2019-03-15T09:42:45.216Z,3.02
2019-03-15T09:45:16.746Z,3.10
2019-03-15T09:47:45.822Z,2.90
2019-03-15T09:50:24.991Z,3.40
2019-03-15T09:52:47.499Z,3.30
2019-03-15T09:55:16.598Z,3.37
2019-03-15T09:57:45.478Z,2.95
2019-03-15T10:00:18.056Z,3.30
2019-03-15T10:02:47.058Z,3.58
2019-03-15T10:05:16.152Z,3.08
2019-03-15T10:07:45.400Z,3.00
2019-03-15T10:10:18.914Z,2.80
2019-03-15T10:12:48.036Z,2.92
2019-03-15T10:15:17.619Z,3.25
2019-03-15T10:17:46.738Z,3.10
2019-03-15T10:20:16.120Z,3.22
2019-03-15T10:22:45.247Z,3.10
2019-03-15T10:25:15.096Z,2.00
2019-03-15T10:27:44.154Z,2.40
2019-03-15T10:30:17.750Z,2.70
2019-03-15T10:32:46.855Z,2.80
2019-03-15T10:35:15.955Z,2.52
2019-03-15T10:37:45.022Z,2.98
2019-03-15T10:40:34.812Z,3.35
2019-03-15T10:43:04.240Z,2.42
2019-03-15T10:45:33.075Z,2.95
2019-03-15T10:48:01.998Z,2.77
2019-03-15T10:50:31.098Z,2.50
2019-03-15T10:53:00.202Z,2.90
2019-03-15T10:55:29.291Z,3.50
2019-03-15T10:57:58.385Z,2.55
2019-03-15T11:00:27.379Z,2.98
2019-03-15T11:02:56.468Z,2.40
2019-03-15T11:05:25.456Z,2.67
2019-03-15T11:07:54.548Z,2.65
2019-03-15T11:10:23.551Z,2.75
2019-03-15T11:12:52.854Z,2.83
2019-03-15T11:15:21.959Z,2.75
2019-03-15T11:17:51.041Z,2.60
2019-03-15T11:20:20.346Z,2.12
2019-03-15T11:22:49.219Z,2.50
2019-03-15T11:25:18.333Z,3.27
2019-03-15T11:27:47.511Z,2.45
2019-03-15T11:30:16.511Z,2.27
2019-03-15T11:32:45.631Z,3.33
2019-03-15T11:35:14.913Z,2.85
2019-03-15T11:37:43.792Z,2.90
2019-03-15T11:40:14.849Z,2.10
2019-03-15T11:42:43.833Z,2.70
2019-03-15T11:45:13.443Z,2.58
2019-03-15T11:48:01.320Z,2.52
2019-03-15T11:50:14.286Z,3.17
2019-03-15T11:52:43.486Z,3.77
2019-03-15T11:55:12.606Z,2.92
2019-03-15T11:57:41.789Z,2.95
2019-03-15T12:00:18.668Z,2.77
2019-03-15T12:02:47.969Z,2.92
2019-03-15T12:05:16.846Z,2.62
2019-03-15T12:07:45.960Z,3.20
2019-03-15T12:10:16.278Z,2.60
2019-03-15T12:12:45.475Z,3.08
2019-03-15T12:15:18.452Z,2.92
2019-03-15T12:17:47.553Z,3.30
2019-03-15T12:20:16.668Z,2.50
2019-03-15T12:22:45.647Z,3.05
2019-03-15T12:25:16.149Z,3.33
2019-03-15T12:27:45.052Z,2.50
2019-03-15T12:30:15.311Z,2.83
2019-03-15T12:32:44.596Z,2.77
2019-03-15T12:35:14.146Z,3.10
2019-03-15T12:37:43.204Z,3.50
2019-03-15T12:40:16.613Z,3.10
2019-03-15T12:42:45.633Z,2.98
2019-03-15T12:45:15.518Z,3.50
2019-03-15T12:47:45.010Z,2.92
2019-03-15T12:50:14.679Z,2.80
2019-03-15T12:52:47.734Z,3.22
2019-03-15T12:55:14.817Z,3.50
2019-03-15T12:57:43.711Z,3.30
2019-03-15T13:00:19.887Z,2.98
2019-03-15T13:02:48.888Z,3.10
2019-03-15T13:05:17.879Z,3.12
2019-03-15T13:07:46.978Z,2.90
2019-03-15T13:10:18.437Z,2.50
2019-03-15T13:12:47.525Z,2.98
2019-03-15T13:15:17.239Z,3.17
2019-03-15T13:17:46.303Z,2.58
2019-03-15T13:20:17.066Z,2.67
2019-03-15T13:22:46.156Z,2.95
2019-03-15T13:25:15.030Z,2.20
2019-03-15T13:27:44.043Z,2.10
2019-03-15T13:30:17.424Z,2.50
2019-03-15T13:32:46.264Z,2.77
2019-03-15T13:35:15.131Z,2.67
2019-03-15T13:37:44.143Z,3.10
2019-03-15T13:40:14.646Z,2.52
2019-03-15T13:42:43.524Z,3.00
2019-03-15T13:45:13.636Z,2.65
2019-03-15T13:47:42.498Z,3.12
2019-03-15T13:50:13.469Z,3.02
2019-03-15T13:52:42.389Z,2.70
2019-03-15T13:55:11.363Z,2.80
2019-03-15T13:57:41.208Z,2.67
2019-03-15T14:00:17.280Z,2.70
2019-03-15T14:02:46.242Z,2.40
2019-03-15T14:05:15.109Z,2.67
2019-03-15T14:07:44.099Z,3.58
2019-03-15T14:10:16.839Z,3.17
2019-03-15T14:12:45.740Z,3.40
2019-03-15T14:15:18.922Z,3.25
2019-03-15T14:17:47.872Z,3.12
2019-03-15T14:20:16.772Z,2.40
2019-03-15T14:22:45.795Z,2.55
2019-03-15T14:25:20.055Z,2.95
2019-03-15T14:27:48.982Z,3.05
2019-03-15T14:30:17.933Z,2.70
2019-03-15T14:32:46.828Z,3.33
2019-03-15T14:35:15.657Z,2.67
2019-03-15T14:37:44.623Z,2.60
2019-03-15T14:40:13.727Z,2.67
2019-03-15T14:42:42.605Z,2.42
2019-03-15T14:45:15.781Z,2.50
2019-03-15T14:47:44.753Z,2.77
2019-03-15T14:50:16.608Z,3.02
2019-03-15T14:52:45.506Z,2.62
2019-03-15T14:55:15.803Z,2.95
2019-03-15T14:57:52.625Z,2.72
2019-03-15T15:00:17.360Z,2.50
2019-03-15T15:02:46.328Z,2.72
2019-03-15T15:05:15.192Z,3.15
2019-03-15T15:07:44.174Z,2.85
2019-03-15T15:10:17.001Z,3.05
2019-03-15T15:12:46.015Z,3.42
2019-03-15T15:15:16.796Z,3.90
2019-03-15T15:17:45.640Z,3.17
2019-03-15T15:20:14.492Z,2.87
2019-03-15T15:22:43.446Z,3.02
2019-03-15T15:25:13.381Z,3.08
2019-03-15T15:27:42.268Z,3.80
2019-03-15T15:30:13.053Z,3.92
2019-03-15T15:32:41.955Z,3.08
2019-03-15T15:35:12.097Z,3.02
2019-03-15T15:37:41.157Z,2.60
2019-03-15T15:40:12.112Z,3.90
2019-03-15T15:42:40.963Z,3.70
2019-03-15T15:45:11.460Z,3.95
2019-03-15T15:47:40.318Z,3.58
2019-03-15T15:50:14.338Z,4.10
2019-03-15T15:52:43.342Z,2.83
2019-03-15T15:55:16.238Z,3.27
2019-03-15T15:57:45.077Z,3.25
2019-03-15T16:00:16.071Z,2.67
2019-03-15T16:02:45.004Z,3.15
2019-03-15T16:05:14.323Z,2.92
2019-03-15T16:07:43.330Z,2.17
2019-03-15T16:10:18.672Z,2.58
2019-03-15T16:12:47.896Z,2.87
2019-03-15T16:15:18.033Z,2.70
2019-03-15T16:17:47.111Z,2.85
2019-03-15T16:20:16.057Z,2.67
2019-03-15T16:22:44.825Z,2.40
2019-03-15T16:25:14.217Z,2.02
2019-03-15T16:27:43.266Z,3.22
2019-03-15T16:30:14.419Z,2.30
2019-03-15T16:32:43.338Z,2.27
2019-03-15T16:35:13.337Z,3.10
2019-03-15T16:37:42.367Z,2.75
2019-03-15T16:40:12.359Z,2.55
2019-03-15T16:42:41.366Z,2.00
2019-03-15T16:45:15.196Z,2.47
2019-03-15T16:47:43.659Z,2.40
2019-03-15T16:50:13.669Z,2.40
2019-03-15T16:52:42.569Z,2.42
2019-03-15T16:55:12.531Z,2.50
2019-03-15T16:57:41.502Z,2.67
2019-03-15T17:00:18.100Z,2.30
2019-03-15T17:02:47.338Z,2.60
2019-03-15T17:05:16.190Z,2.70
2019-03-15T17:07:45.051Z,2.62
2019-03-15T17:10:15.426Z,2.67
2019-03-15T17:12:44.242Z,2.60
2019-03-15T17:15:26.962Z,2.60
2019-03-15T17:17:55.872Z,2.45
2019-03-15T17:20:24.813Z,2.70
2019-03-15T17:22:53.737Z,2.40
2019-03-15T17:25:22.587Z,2.42
2019-03-15T17:27:51.477Z,2.30
2019-03-15T17:30:20.439Z,1.98
2019-03-15T17:32:49.324Z,2.83
2019-03-15T17:35:20.476Z,4.47
2019-03-15T17:37:49.497Z,4.55
2019-03-15T17:40:20.243Z,4.47
2019-03-15T17:42:49.150Z,3.40
2019-03-15T17:45:18.095Z,2.65
2019-03-15T17:47:47.778Z,2.80
2019-03-15T17:50:24.687Z,3.22
2019-03-15T17:52:53.570Z,2.90
2019-03-15T17:55:22.559Z,2.62
2019-03-15T17:57:51.524Z,3.02
2019-03-15T18:00:37.272Z,2.47
2019-03-15T18:03:20.130Z,2.67
2019-03-15T18:05:38.153Z,2.17
2019-03-15T18:08:07.078Z,2.83
2019-03-15T18:10:36.401Z,2.58
2019-03-15T18:13:05.673Z,2.65
2019-03-15T18:15:34.574Z,3.12
2019-03-15T18:18:03.685Z,2.22
2019-03-15T18:20:32.564Z,2.47
2019-03-15T18:23:01.455Z,2.00
2019-03-15T18:25:30.515Z,1.98
2019-03-15T18:27:59.425Z,2.40
2019-03-15T18:30:28.324Z,1.85
2019-03-15T18:32:57.377Z,2.05
2019-03-15T18:35:33.511Z,2.37
2019-03-15T18:37:56.788Z,2.10
2019-03-15T18:40:25.758Z,1.60
2019-03-15T18:42:54.677Z,1.60
2019-03-15T18:45:23.809Z,1.60
2019-03-15T18:47:53.807Z,2.35
2019-03-15T18:50:26.457Z,1.90
2019-03-15T18:52:55.514Z,1.98
2019-03-15T18:55:24.632Z,2.27
2019-03-15T18:57:53.539Z,1.92
2019-03-15T19:00:26.852Z,2.02
2019-03-15T19:02:55.895Z,1.92
2019-03-15T19:05:24.731Z,2.10
2019-03-15T19:07:53.657Z,1.80
2019-03-15T19:10:22.802Z,1.80
2019-03-15T19:12:51.641Z,1.85
2019-03-15T19:15:23.274Z,2.40
2019-03-15T19:17:52.577Z,1.90
2019-03-15T19:20:21.485Z,1.90
2019-03-15T19:22:50.338Z,2.00
2019-03-15T19:25:19.341Z,1.87
2019-03-15T19:27:48.205Z,2.20
2019-03-15T19:30:18.385Z,1.82
2019-03-15T19:32:47.522Z,1.90
2019-03-15T19:35:16.489Z,2.05
2019-03-15T19:37:45.357Z,2.00
2019-03-15T19:40:16.957Z,2.33
2019-03-15T19:42:46.013Z,1.92
2019-03-15T19:45:18.213Z,2.00
2019-03-15T19:47:47.757Z,2.47
2019-03-15T19:50:18.880Z,1.75
2019-03-15T19:52:47.772Z,1.75
2019-03-15T19:55:17.613Z,1.72
2019-03-15T19:57:46.493Z,2.33
2019-03-15T20:00:16.986Z,2.62
2019-03-15T20:02:45.892Z,1.95
2019-03-15T20:05:14.994Z,2.15
2019-03-15T20:07:44.178Z,2.15
2019-03-15T20:10:16.376Z,1.92
2019-03-15T20:12:45.180Z,1.77
2019-03-15T20:15:16.145Z,1.70
2019-03-15T20:17:45.294Z,2.33
2019-03-15T20:20:18.409Z,1.77
2019-03-15T20:22:47.377Z,2.08
2019-03-15T20:25:16.988Z,1.75
2019-03-15T20:27:45.897Z,1.70
2019-03-15T20:30:26.177Z,1.72
2019-03-15T20:32:53.555Z,2.20
2019-03-15T20:35:22.632Z,2.55
2019-03-15T20:37:51.767Z,1.77
2019-03-15T20:40:20.649Z,2.30
2019-03-15T20:42:49.618Z,2.20
2019-03-15T20:45:26.771Z,2.10
2019-03-15T20:47:55.751Z,2.45
2019-03-15T20:50:24.774Z,1.80
2019-03-15T20:53:07.150Z,2.40
2019-03-15T20:55:24.326Z,1.82
2019-03-15T20:57:53.272Z,2.27
2019-03-15T21:00:34.821Z,1.70
2019-03-15T21:02:53.752Z,1.85
2019-03-15T21:05:22.733Z,2.17
2019-03-15T21:07:51.778Z,2.00
2019-03-15T21:10:20.697Z,2.10
2019-03-15T21:12:49.645Z,1.92
2019-03-15T21:15:21.640Z,1.52
2019-03-15T21:17:50.652Z,2.12
2019-03-15T21:20:23.060Z,1.80
2019-03-15T21:22:52.342Z,1.57
2019-03-15T21:25:21.205Z,1.65
2019-03-15T21:27:54.175Z,2.12
2019-03-15T21:30:27.811Z,1.85
2019-03-15T21:32:56.674Z,1.90
2019-03-15T21:35:25.573Z,1.75
2019-03-15T21:37:54.510Z,1.95
2019-03-15T21:40:23.547Z,1.98
2019-03-15T21:42:52.448Z,1.90
2019-03-15T21:45:21.405Z,2.37
2019-03-15T21:47:50.349Z,1.87
2019-03-15T21:50:21.538Z,2.00
2019-03-15T21:52:50.856Z,2.40
2019-03-15T21:55:19.842Z,1.87
2019-03-15T21:57:48.754Z,2.12
2019-03-15T22:00:22.235Z,2.35
2019-03-15T22:02:51.168Z,1.82
2019-03-15T22:05:20.045Z,1.72
2019-03-15T22:07:48.971Z,2.00
2019-03-15T22:10:18.118Z,1.98
2019-03-15T22:12:47.005Z,2.00
2019-03-15T22:15:16.258Z,2.30
2019-03-15T22:17:45.224Z,2.35
2019-03-15T22:20:17.427Z,1.82
2019-03-15T22:22:46.456Z,2.00
2019-03-15T22:25:15.374Z,1.77
2019-03-15T22:27:44.258Z,2.00
2019-03-15T22:30:14.261Z,1.50
2019-03-15T22:32:43.418Z,1.60
2019-03-15T22:35:12.451Z,1.77
2019-03-15T22:37:41.342Z,2.40
2019-03-15T22:40:12.467Z,2.72
2019-03-15T22:42:41.369Z,1.75
2019-03-15T22:45:11.700Z,1.60
2019-03-15T22:47:40.570Z,1.65
2019-03-15T22:50:11.402Z,1.50
2019-03-15T22:52:40.713Z,1.50
2019-03-15T22:55:10.898Z,1.67
2019-03-15T22:57:39.812Z,1.80
2019-03-15T23:00:20.874Z,2.00
2019-03-15T23:02:50.165Z,1.80
2019-03-15T23:05:19.234Z,1.70
2019-03-15T23:07:48.501Z,1.70
2019-03-15T23:10:17.754Z,1.42
2019-03-15T23:12:46.643Z,1.67
2019-03-15T23:15:15.626Z,1.60
2019-03-15T23:17:44.555Z,1.67
2019-03-15T23:20:14.058Z,1.80
2019-03-15T23:22:43.106Z,1.40
2019-03-15T23:25:12.037Z,1.35
2019-03-15T23:27:40.914Z,1.20
2019-03-15T23:30:14.889Z,1.60
2019-03-15T23:32:43.777Z,1.92
2019-03-15T23:35:12.703Z,1.30
2019-03-15T23:37:41.758Z,1.57
2019-03-15T23:40:14.517Z,1.50
2019-03-15T23:42:43.436Z,1.57
2019-03-15T23:45:12.673Z,1.32
2019-03-15T23:47:41.613Z,1.47
2019-03-15T23:50:12.844Z,1.67
2019-03-15T23:52:41.898Z,1.50
2019-03-15T23:55:10.851Z,1.40
2019-03-15T23:57:40.084Z,1.45
